Time;durP1;ratioP1;P1;durP2;ratioP2;P2;SDS_P1;SDS_P2;PMS_P1;PMS_P2;Temp;Humidity;BMP_temperature;BMP_pressure;BME280_temperature;BME280_humidity;BME280_pressure;Samples;Min_cycle;Max_cycle;Signal;HPM_P1;HPM_P2
2023/03/27 00:21:43;;;;;;;22.30;6.93;;;11.50;99.90;;;;;;6102207;23;20074;-92
2023/03/27 00:24:43;;;;;;;22.52;7.15;;;11.80;99.90;;;;;;5965282;24;20009;-93
2023/03/27 00:27:57;;;;;;;24.80;7.40;;;12.00;99.90;;;;;;5965818;24;20091;-93
2023/03/27 00:30:48;;;;;;;25.45;8.30;;;12.10;99.90;;;;;;5930731;24;20013;-94
2023/03/27 00:37:50;;;;;;;29.05;7.30;;;12.30;99.90;;;;;;5932727;24;20093;-95
2023/03/27 00:54:04;;;;;;;;;;;;;;;;;;;;;
2023/03/27 01:11:57;;;;;;;;;;;;;;;;;;;;;
2023/03/27 01:15:06;;;;;;;31.40;7.25;;;12.80;99.90;;;;;;6239969;22;20286;-94
2023/03/27 01:19:08;;;;;;;24.33;7.50;;;12.80;99.90;;;;;;6205752;23;20498;-93
2023/03/27 01:22:57;;;;;;;;;;;;;;;;;;;;;
2023/03/27 01:26:27;;;;;;;31.33;7.47;;;12.80;99.90;;;;;;6133629;23;20018;-93
2023/03/27 01:29:53;;;;;;;;;;;;;;;;;;;;;
2023/03/27 01:33:25;;;;;;;23.33;6.95;;;12.70;99.90;;;;;;6191017;23;20013;-95
2023/03/27 01:37:01;;;;;;;32.58;7.15;;;12.80;99.90;;;;;;6168189;23;20048;-95
2023/03/27 01:40:23;;;;;;;;;;;;;;;;;;;;;
2023/03/27 01:46:09;;;;;;;21.08;6.90;;;12.90;99.90;;;;;;6289269;22;20023;-94
2023/03/27 01:57:22;;;;;;;24.10;6.57;;;13.00;99.90;;;;;;6260184;23;20054;-93
2023/03/27 02:04:26;;;;;;;25.92;6.43;;;12.90;99.90;;;;;;6144363;23;20013;-93
2023/03/27 02:08:06;;;;;;;31.95;6.40;;;12.90;99.90;;;;;;6048511;23;20021;-93
2023/03/27 02:19:32;;;;;;;31.33;7.18;;;12.90;99.90;;;;;;5910643;24;20049;-92
2023/03/27 02:25:58;;;;;;;25.33;6.22;;;13.20;99.90;;;;;;5802874;24;20046;-94
2023/03/27 02:29:09;;;;;;;34.00;7.38;;;13.10;99.90;;;;;;5850574;24;20101;-94
2023/03/27 02:32:36;;;;;;;29.77;7.25;;;13.10;99.90;;;;;;5851171;24;20010;-94
2023/03/27 02:43:57;;;;;;;31.38;6.95;;;13.10;99.90;;;;;;5907925;24;20077;-94
2023/03/27 02:47:59;;;;;;;;;;;;;;;;;;;;;
2023/03/27 02:51:39;;;;;;;29.13;7.22;;;13.00;99.90;;;;;;5961670;24;20017;-93
2023/03/27 02:55:32;;;;;;;33.85;7.43;;;13.00;99.90;;;;;;5928094;23;20023;-93
2023/03/27 03:02:11;;;;;;;29.80;7.00;;;13.00;99.90;;;;;;6016714;23;20020;-93
2023/03/27 03:05:10;;;;;;;;;;;12.90;99.90;;;;;;5994621;23;20018;-93
2023/03/27 03:08:01;;;;;;;26.15;6.88;;;12.80;99.90;;;;;;6014811;23;19929;-94
2023/03/27 03:10:56;;;;;;;30.60;7.63;;;12.70;99.90;;;;;;5994602;23;20035;-94
2023/03/27 03:14:28;;;;;;;;;;;;;;;;;;;;;
2023/03/27 03:18:03;;;;;;;41.00;8.77;;;12.60;99.90;;;;;;6076151;23;20011;-93
2023/03/27 03:41:46;;;;;;;;;;;;;;;;;;;;;
2023/03/27 03:50:34;;;;;;;25.70;6.75;;;12.40;99.90;;;;;;6290517;22;20062;-93
2023/03/27 04:11:51;;;;;;;25.67;6.88;;;12.30;99.90;;;;;;6121077;23;20134;31
2023/03/27 04:15:39;;;;;;;24.45;6.30;;;12.30;99.90;;;;;;6178923;23;20021;-93
2023/03/27 06:28:38;;;;;;;20.80;19.02;;;22.30;99.90;;;;;;6279647;22;20023;31
2023/03/27 06:31:06;;;;;;;20.63;18.92;;;22.30;99.90;;;;;;6019435;23;20322;-87
2023/03/27 06:33:41;;;;;;;20.15;18.70;;;22.30;99.90;;;;;;6019073;23;20443;-84
2023/03/27 06:36:19;;;;;;;20.73;18.75;;;22.20;99.90;;;;;;6043666;23;20462;-86
2023/03/27 06:38:47;;;;;;;21.42;19.35;;;22.30;99.90;;;;;;6045981;23;20011;-87
2023/03/27 06:41:14;;;;;;;21.58;19.35;;;22.10;99.90;;;;;;6045537;23;20080;-87
2023/03/27 06:43:56;;;;;;;22.33;19.98;;;22.00;99.90;;;;;;6048464;23;20015;-88
2023/03/27 06:46:42;;;;;;;21.80;19.60;;;22.20;99.90;;;;;;6084090;23;20014;-88
2023/03/27 06:49:38;;;;;;;25.23;19.73;;;22.40;99.90;;;;;;6083394;23;20443;-90
2023/03/27 06:52:11;;;;;;;22.13;19.73;;;22.50;99.90;;;;;;6047002;23;20400;-92
2023/03/27 06:54:38;;;;;;;21.25;19.40;;;22.40;99.90;;;;;;6045612;23;20289;-90
2023/03/27 06:57:05;;;;;;;21.65;19.38;;;21.80;99.90;;;;;;6045534;23;20007;-91
2023/03/27 06:59:52;;;;;;;22.33;20.20;;;21.40;99.90;;;;;;6073259;23;20006;-92
2023/03/27 07:02:23;;;;;;;27.85;19.10;;;20.10;99.90;;;;;;6046613;23;20105;-92
2023/03/27 07:05:08;;;;;;;24.60;19.55;;;19.60;99.90;;;;;;6073559;23;20387;-93
2023/03/27 07:07:39;;;;;;;24.98;18.60;;;19.70;99.90;;;;;;6047260;23;20014;-90
2023/03/27 07:10:06;;;;;;;24.63;19.27;;;19.10;99.90;;;;;;6045826;23;20038;-88
2023/03/27 07:12:33;;;;;;;22.30;18.45;;;18.50;99.90;;;;;;6046033;23;20009;-87
2023/03/27 07:15:00;;;;;;;20.77;18.17;;;17.90;99.90;;;;;;6045356;23;20011;-89
2023/03/27 07:17:28;;;;;;;20.00;18.15;;;17.60;99.90;;;;;;6045687;23;20060;-89
2023/03/27 07:19:56;;;;;;;19.88;17.77;;;17.60;99.90;;;;;;6047383;23;20019;-90
2023/03/27 07:22:26;;;;;;;24.30;18.42;;;17.50;99.90;;;;;;6048890;23;20041;-88
2023/03/27 07:24:54;;;;;;;22.88;18.83;;;17.70;99.90;;;;;;6047864;23;20014;-91
2023/03/27 07:27:23;;;;;;;22.48;18.92;;;18.70;99.90;;;;;;6047934;23;20014;-90
2023/03/27 07:29:57;;;;;;;21.40;19.25;;;19.70;99.90;;;;;;6062282;23;20018;-92
2023/03/27 07:32:28;;;;;;;21.90;19.48;;;20.10;99.90;;;;;;6073498;23;20015;-90
2023/03/27 07:34:56;;;;;;;23.05;19.20;;;19.80;99.90;;;;;;6071998;23;20060;-89
2023/03/27 07:37:55;;;;;;;24.02;19.02;;;19.30;99.90;;;;;;6037664;23;20050;-88
2023/03/27 07:40:37;;;;;;;23.23;18.83;;;18.90;99.90;;;;;;6037853;23;20024;-89
2023/03/27 07:43:41;;;;;;;24.48;18.75;;;18.60;99.90;;;;;;6036501;23;20015;-75
2023/03/27 07:46:09;;;;;;;27.02;18.92;;;18.20;99.90;;;;;;6036487;23;20018;-73
2023/03/27 07:48:35;;;;;;;22.92;19.17;;;17.90;99.90;;;;;;6036438;23;20038;-74
2023/03/27 07:51:02;;;;;;;21.63;19.13;;;18.10;99.90;;;;;;6036788;23;20012;-73
2023/03/27 07:54:12;;;;;;;23.80;19.77;;;18.50;99.90;;;;;;6013714;23;20007;-94
2023/03/27 08:03:34;;;;;;;;;;;;;;;;;;;;;
2023/03/27 08:07:21;;;;;;;;;;;;;;;;;;;;;
2023/03/27 08:21:12;;;;;;;25.38;20.50;;;21.10;99.90;;;;;;6342589;22;20026;-95
2023/03/27 08:24:03;;;;;;;22.63;20.20;;;21.10;99.90;;;;;;6300671;22;20010;-94
2023/03/27 08:38:41;;;;;;;;;;;;;;;;;;;;;
2023/03/27 08:49:50;;;;;;;23.33;20.52;;;21.30;99.90;;;;;;5800350;24;20018;-94
2023/03/27 09:49:43;;;;;;;21.42;19.35;;;20.20;99.90;;;;;;6187184;23;20013;-93
2023/03/27 09:52:55;;;;;;;21.10;19.05;;;20.50;99.90;;;;;;6140714;23;20015;-94
2023/03/27 10:00:35;;;;;;;24.08;19.75;;;20.80;99.90;;;;;;6008547;23;20121;-92
2023/03/27 10:07:15;;;;;;;25.52;19.55;;;20.80;99.90;;;;;;6132433;22;20048;-94
2023/03/27 10:10:07;;;;;;;21.58;19.00;;;20.70;99.90;;;;;;6287902;22;20057;-94
2023/03/27 10:13:04;;;;;;;21.13;19.05;;;20.50;99.90;;;;;;6266744;22;20011;-94
2023/03/27 10:16:16;;;;;;;24.38;19.25;;;20.40;99.90;;;;;;6258233;22;20010;-94
2023/03/27 10:19:05;;;;;;;21.00;19.20;;;20.70;99.90;;;;;;6259986;22;20017;-95
2023/03/27 10:22:00;;;;;;;23.85;19.95;;;20.50;99.90;;;;;;6260649;22;20452;-93
2023/03/27 10:24:54;;;;;;;22.08;20.25;;;20.50;99.90;;;;;;6259748;22;20083;-93
2023/03/27 10:31:02;;;;;;;22.23;19.92;;;20.90;99.90;;;;;;6186983;23;20013;-93
2023/03/27 10:59:45;;;;;;;21.17;19.38;;;20.30;99.90;;;;;;6311569;22;20401;-94
2023/03/27 11:39:22;;;;;;;22.50;20.30;;;20.60;99.90;;;;;;6209745;22;20072;-95
2023/03/27 11:42:50;;;;;;;22.65;20.65;;;20.60;99.90;;;;;;6168892;23;20080;-93
2023/03/27 11:45:45;;;;;;;22.30;20.20;;;20.50;99.90;;;;;;6230651;22;20031;-92
2023/03/27 11:57:54;;;;;;;21.92;20.08;;;20.10;99.90;;;;;;6257426;22;20046;-92
2023/03/27 12:50:58;;;;;;;22.77;20.85;;;19.40;99.90;;;;;;6253164;22;20023;-93
2023/03/27 13:47:30;;;;;;;19.23;17.48;;;17.40;99.90;;;;;;6194506;23;20039;-94
2023/03/27 13:50:24;;;;;;;18.15;16.50;;;16.40;99.90;;;;;;6192799;23;20008;-92
2023/03/27 13:53:18;;;;;;;18.40;16.60;;;15.90;99.90;;;;;;6168140;23;20012;-93
2023/03/27 13:56:25;;;;;;;19.73;17.40;;;15.70;99.90;;;;;;6195383;23;20043;-92
2023/03/27 14:03:50;;;;;;;;;;;;;;;;;;;;;
2023/03/27 14:07:15;;;;;;;20.50;18.45;;;15.10;99.90;;;;;;6300955;22;20023;-94
2023/03/27 14:13:30;;;;;;;22.00;19.80;;;14.80;99.90;;;;;;6162043;23;20100;-94
2023/03/27 14:16:37;;;;;;;21.48;19.63;;;14.90;99.90;;;;;;6139260;23;20017;-94
2023/03/27 14:45:34;;;;;;;18.25;16.92;;;14.50;99.90;;;;;;6250440;22;20405;-91
2023/03/27 15:14:39;;;;;;;19.52;17.92;;;13.60;99.90;;;;;;6198717;22;19969;-93
2023/03/27 15:24:05;;;;;;;20.40;17.30;;;13.20;99.90;;;;;;6254374;22;20020;-94
2023/03/27 15:26:34;;;;;;;37.65;15.90;;;13.40;99.90;;;;;;6252631;23;20457;-91
2023/03/27 15:29:34;;;;;;;20.73;12.32;;;13.60;99.90;;;;;;6220882;23;20000;-92
2023/03/27 17:50:25;;;;;;;17.50;9.00;;;11.30;99.90;;;;;;6307630;22;20030;-93
2023/03/27 17:52:52;;;;;;;13.60;6.82;;;11.20;99.90;;;;;;6262894;22;20432;-92
2023/03/27 17:55:44;;;;;;;11.35;6.90;;;11.20;99.90;;;;;;6259531;22;19999;-92
2023/03/27 17:58:15;;;;;;;11.57;6.10;;;11.10;99.90;;;;;;6244721;22;20015;-94
2023/03/27 18:00:42;;;;;;;14.52;5.97;;;11.10;99.90;;;;;;6267328;22;20027;-93
2023/03/27 20:23:53;;;;;;;6.20;4.68;;;11.10;99.90;;;;;;6245993;22;20042;-93
2023/03/27 20:40:18;;;;;;;12.82;4.95;;;11.20;99.90;;;;;;6195041;23;20005;-92
2023/03/27 20:43:04;;;;;;;7.53;4.50;;;11.20;99.90;;;;;;6169314;23;20009;-93
2023/03/27 20:47:11;;;;;;;8.65;5.15;;;11.20;99.90;;;;;;6202346;23;20036;-93
2023/03/27 21:00:25;;;;;;;7.75;5.78;;;11.20;99.90;;;;;;6278747;22;20023;-93
2023/03/27 21:19:18;;;;;;;9.43;6.20;;;11.10;99.90;;;;;;6296700;22;20445;-93
2023/03/27 21:37:39;;;;;;;11.48;6.95;;;11.00;99.90;;;;;;6284418;22;20011;-94
2023/03/27 21:40:40;;;;;;;7.05;6.47;;;10.90;99.90;;;;;;6305128;22;20076;-93
2023/03/27 21:43:08;;;;;;;7.47;6.65;;;10.90;99.90;;;;;;6279903;22;20031;-93
2023/03/27 21:45:35;;;;;;;7.82;7.10;;;10.90;99.90;;;;;;6253959;22;20010;-93
2023/03/27 21:48:01;;;;;;;7.80;7.10;;;10.90;99.90;;;;;;6253200;22;20007;-93
2023/03/27 21:50:28;;;;;;;9.07;7.60;;;10.90;99.90;;;;;;6252784;22;20008;-93
2023/03/27 21:52:57;;;;;;;10.98;8.02;;;10.90;99.90;;;;;;6257291;22;20008;-94
2023/03/27 21:55:24;;;;;;;8.60;7.90;;;10.90;99.90;;;;;;6278492;22;20497;-93
2023/03/27 21:57:51;;;;;;;8.88;8.00;;;10.90;99.90;;;;;;6254547;22;20491;-91
2023/03/27 22:00:18;;;;;;;10.35;8.60;;;10.90;99.90;;;;;;6254756;22;20007;-93
2023/03/27 22:02:45;;;;;;;8.27;7.78;;;10.80;99.90;;;;;;6254583;22;20007;-93
2023/03/27 22:05:14;;;;;;;9.15;8.00;;;10.80;99.90;;;;;;6259793;22;20026;-94
2023/03/27 22:07:40;;;;;;;15.70;10.60;;;10.80;99.90;;;;;;6252971;22;20018;-92
2023/03/27 22:10:07;;;;;;;9.05;8.20;;;10.80;99.90;;;;;;6253396;22;20004;-91
2023/03/27 22:12:38;;;;;;;8.57;7.80;;;10.70;99.90;;;;;;6253075;22;20319;-93
2023/03/27 22:15:12;;;;;;;8.40;7.78;;;10.70;99.90;;;;;;6288620;22;20067;-94
2023/03/27 22:17:41;;;;;;;8.70;8.00;;;10.70;99.90;;;;;;6259977;22;20047;-94
2023/03/27 22:20:10;;;;;;;8.27;7.70;;;10.60;99.90;;;;;;6270998;22;20034;-93
2023/03/27 22:22:37;;;;;;;8.35;7.68;;;10.60;99.90;;;;;;6279429;22;20035;-93
2023/03/27 22:25:04;;;;;;;8.77;8.18;;;10.60;99.90;;;;;;6254304;22;20087;-93
2023/03/27 22:27:31;;;;;;;8.55;7.72;;;10.60;99.90;;;;;;6287471;22;20067;-92
2023/03/27 22:29:57;;;;;;;8.50;8.00;;;10.60;99.90;;;;;;6256991;22;20448;-93
2023/03/27 22:32:24;;;;;;;8.98;8.20;;;10.60;99.90;;;;;;6287166;22;20526;-95
2023/03/27 23:40:15;;;;;;;12.80;12.10;;;10.50;99.90;;;;;;6161492;23;19959;-92
2023/03/27 23:43:04;;;;;;;12.65;11.98;;;10.50;99.90;;;;;;6133789;23;20100;-93
2023/03/27 23:45:37;;;;;;;13.80;12.93;;;10.40;99.90;;;;;;6155926;23;20045;-92
2023/03/27 23:48:19;;;;;;;13.68;12.80;;;10.40;99.90;;;;;;6157059;23;20009;-92
2023/03/27 23:50:46;;;;;;;14.00;13.20;;;10.40;99.90;;;;;;6106971;23;20049;-93
2023/03/27 23:53:24;;;;;;;13.90;13.02;;;10.40;99.90;;;;;;6108121;23;20020;-93
2023/03/27 23:55:55;;;;;;;14.27;13.30;;;10.40;99.90;;;;;;6106986;23;20060;-92
2023/03/27 23:58:27;;;;;;;14.15;13.35;;;10.30;99.90;;;;;;6112021;23;20013;-92
